AirNav   Everest Fuels
 
 1021 users online  

64KY Coal Field Airport
Lexington, Kentucky, USA

GOING TO LEXINGTON?


FAA INFORMATION EFFECTIVE 16 JULY 2020

Location

FAA Identifier: 64KY
Lat/Long: 38-00-44.1700N 084-20-47.3100W
38-00.736167N 084-20.788500W
38.0122694,-84.3464750
(estimated)
Elevation: 984 ft. / 300 m (estimated)
From city: 7 miles SE of LEXINGTON, KY
Time zone: UTC -4 (UTC -5 during Standard Time)
Zip code: 40516

Airport Operations

Airport use: Private use. Permission required prior to landing
Activation date: 07/2010
Control tower: no
ARTCC: INDIANAPOLIS CENTER
FSS: LOUISVILLE FLIGHT SERVICE STATION
Attendance: UNATNDD
Wind indicator: yes
Segmented circle: no

Airport Communications

WX ASOS at LEX (12 nm W): PHONE 859-281-5700
WX AWOS-3 at 27K (14 nm N): 119.975 (502-867-1564)
WX AWOS-3 at IOB (18 nm E): 120.675 (859-498-7001)

Nearby radio navigation aids

VOR radial/distance  VOR name  Freq  Var
HYKr065/6.6LEXINGTON VOR/DME112.6000E
FFTr114/(28.4)FRANKFORT VOR109.4003W
FLMr187/38.3FALMOUTH VOR/DME117.0004W

 
NDB name  Hdg/Dist  Freq  Var  ID
BRIDL136/10.134004WGN --. -.
BLAYD088/14.924204WLE .-.. .
MOUNT STERLING267/17.521006WIOB .. --- -...
SECO319/21.439303WXYC -..- -.-- -.-.
GOODALL040/32.831103WDVK -.. ...- -.-

Airport Services

Runway Information

Runway 5/23

Dimensions: 2206 x 35 ft. / 672 x 11 m
Surface: asphalt
RUNWAY 5  RUNWAY 23
Traffic pattern: leftleft
Obstructions: 5 ft. fence, 8 ft. from runway53 ft. tree, 994 ft. from runway

Airport Ownership and Management from official FAA records

Ownership: Privately-owned
Owner: RESOURCE RESTORATION , LLC
PO BOX 246
CHAVIES, KY 41727
Phone 606-436-3712
Manager: RYAN DUFF
2700 N CLEVELAND RD
LEXTINGTON, KY 40509
Phone 606-436-3712

Airport Operational Statistics

Aircraft based on the field: 2
Single engine airplanes: 1
Helicopters: 1
    

Additional Remarks

FOR CD CTC LEXINGTON APCH AT 859-514-7890.

Instrument Procedures

There are no published instrument procedures at 64KY.

Some nearby airports with instrument procedures:

KLEX - Blue Grass Airport (12 nm W)
27K - Georgetown-Scott County Regional Airport (14 nm N)
KIOB - Mount Sterling-Montgomery County Airport (18 nm E)
0I8 - Cynthiana-Harrison County Airport (21 nm N)
KRGA - Central Kentucky Regional Airport (23 nm S)
 
Loc | Ops | Rwys | IFR | FBO | Links
Com | Nav | Svcs | Stats | Notes
Aerial photo
No photo
 
Sectional chart

 
Airport distance calculator
Flying to Coal Field Airport? Find the distance to fly.

From to 64KY

Sunrise and sunset
Times for 03-Aug-2020
 Local
(UTC-4)
 Zulu
(UTC)
Morning civil twilight06:1510:15
Sunrise06:4410:44
Sunset20:4300:43
Evening civil twilight21:1201:12

Current date and time
Zulu (UTC)  04-Aug-2020 01:32:01
Local (UTC-4)  03-Aug-2020 21:32:01
 
METAR
KLEX 
12nm W 
040054Z 15004KT 10SM CLR 20/20 A2997 RMK AO2 RAE40 SLP142 P0003 T02000200
K27K 
14nm N 
040115Z AUTO 00000KT 10SM SCT031 BKN045 OVC120 21/20 A2997 RMK AO1
KIOB 
18nm E 
040115Z AUTO 29004KT 20/19 A2999 RMK AO2 P0003 PWINO
KRGA 
23nm S 
040115Z AUTO 19003KT 10SM BKN120 21/17 A2996 RMK AO2
TAF
KLEX 
12nm W 
031741Z 0318/0418 00000KT P6SM FEW250 FM032000 22006KT P6SM VCTS BKN050CB FM040000 00000KT P6SM SCT250 FM040900 00000KT P6SM SCT025 FM041300 VRB03KT P6SM SCT040 BKN050
NOTAMs
Click for the latest NOTAMs
NOTAMs are issued by the DoD/FAA and will open in a separate window not controlled by AirNav.

 

 
 

Would you like to see your business listed on this page?

 If your business provides an interesting product or service to pilots, flight crews, aircraft, or users of the Coal Field Airport, you should consider listing it here.  To start the listing process, click on the button below
 
Add a business
 

Other Pages about Coal Field Airport

Update a link
 
Copyright © AirNav, LLC. All rights reserved. Privacy Policy  Contact